Terminal Aerodrome Forecast
Issued by NWS

Home | Current Version | Previous Version | Text Only | Print | Product List | Glossary On
Versions: 1 2 3 4 5 6 7 8 9 10 11 12 13 14 15 16
000
FTUS43 KICT 271120
TAFRSL
TAF
KRSL 271120Z 2712/2812 19010KT P6SM SCT100 BKN200
     FM271600 18015G24KT P6SM BKN200
     FM280000 19015KT P6SM VCTS SCT040CB BKN080
      TEMPO 2803/2807 VRB20G35KT 3SM TSRA OVC040CB=

USA.gov is the U.S. government's official web portal to all federal, state and local government web resources and services.